Stations météo

réclame
Mon MeteoGroup
Uccle, Belgique (6447): Température de l'air & dewpoint: 04.07.2020 15:00:00 - 10.07.2020 15:00:00 (CEST)Uccle, Belgique (6447): Vitesse du vent & gusts: 04.07.2020 15:00:00 - 10.07.2020 15:00:00 (CEST)Uccle, Belgique (6447): Direction du vent: 04.07.2020 15:00:00 - 10.07.2020 15:00:00 (CEST)Uccle, Belgique (6447): reduced air pressure: 04.07.2020 15:00:00 - 10.07.2020 15:00:00 (CEST)Uccle, Belgique (6447): Ensoleillement: 04.07.2020 15:00:00 - 10.07.2020 15:00:00 (CEST)Uccle, Belgique (6447): Quantités de précipitations: 04.07.2020 15:00:00 - 10.07.2020 15:00:00 (CEST)
Date & Time tt [°C] td [°C] ff [km/h] ff [knt] fx [km/h] fx [knt] dd ppp [hPa] sd [min] rr [mm]
10.07.2020 15:00:00 - - - - - - - - - -
10.07.2020 14:00:00 18,8 12,1 18 10 37 20 NW 1015,6 23 0,0
10.07.2020 13:00:00 18,2 13,6 15 8 32 17 NW 1014,9 31 0,1
10.07.2020 12:00:00 16,1 13,4 12 6 34 19 NW 1014,4 3 0,1
10.07.2020 11:00:00 17,3 13,4 16 9 36 19 NW 1013,0 4 0,0
10.07.2020 10:00:00 16,9 14,2 17 9 34 18 NW 1012,1 4 0,0
10.07.2020 09:00:00 16,2 14,6 16 8 34 18 WNW 1011,1 0 0,0
10.07.2020 08:00:00 15,9 14,6 18 10 34 19 WSW 1010,5 0 0,1
10.07.2020 07:00:00 16,1 13,9 18 10 36 19 WSW 1010,2 0 0,0
10.07.2020 06:00:00 16,3 13,5 16 9 32 17 WSW 1009,9 0 0,0
10.07.2020 05:00:00 16,5 13,6 19 10 34 18 WSW 1010,0 0 0,0
10.07.2020 04:00:00 16,8 13,6 15 8 32 17 WSW 1010,4 0 0,0
10.07.2020 03:00:00 17,1 13,7 12 6 31 17 WSW 1010,7 0 0,0
10.07.2020 02:00:00 17,6 13,7 18 10 31 17 W 1011,2 0 0,0
10.07.2020 01:00:00 18,0 14,0 11 6 20 11 SW 1011,6 0 0,0
10.07.2020 00:00:00 18,5 14,4 10 5 34 18 WSW 1011,8 0 0,0
09.07.2020 23:00:00 18,2 14,4 5 3 11 6 W 1011,7 0 0,0
09.07.2020 22:00:00 19,9 14,4 6 4 21 11 NW 1011,7 0 0,0
09.07.2020 21:00:00 22,1 14,4 8 5 26 14 NW 1011,7 27 0,0
09.07.2020 20:00:00 23,7 14,0 11 6 30 16 W 1011,6 60 0,0
09.07.2020 19:00:00 23,8 14,0 18 10 35 19 W 1012,0 41 0,0
09.07.2020 18:00:00 23,5 14,3 14 7 27 15 W 1012,6 15 0,0
09.07.2020 17:00:00 21,9 14,6 16 9 32 17 WSW 1013,3 0 0,0
09.07.2020 16:00:00 20,8 14,5 15 8 34 18 W 1013,9 0 0,0
09.07.2020 15:00:00 20,5 13,7 21 12 40 22 WSW 1014,2 0 0,0
09.07.2020 14:00:00 20,8 14,2 14 8 37 20 WSW 1014,2 11 0,0
09.07.2020 13:00:00 21,1 15,1 20 11 37 20 WSW 1014,3 16 0,0
09.07.2020 12:00:00 19,7 14,8 16 9 36 20 WSW 1014,5 8 0,0
09.07.2020 11:00:00 18,6 15,3 15 8 37 20 WSW 1014,5 5 0,0
09.07.2020 10:00:00 17,0 15,3 16 9 36 19 WSW 1014,7 0 0,0
09.07.2020 09:00:00 16,4 14,7 15 8 37 20 WSW 1014,8 0 0,0
09.07.2020 08:00:00 16,0 14,7 14 8 30 16 WSW 1014,6 0 0,0
09.07.2020 07:00:00 15,9 14,8 15 8 29 16 WSW 1014,7 0 0,0
09.07.2020 06:00:00 16,0 15,0 15 8 34 18 WSW 1015,0 0 0,0
09.07.2020 05:00:00 16,0 15,0 14 7 31 17 WSW 1015,2 0 0,2
09.07.2020 04:00:00 16,0 15,0 13 7 28 15 WSW 1015,2 0 0,0
09.07.2020 03:00:00 16,0 15,1 13 7 28 15 WSW 1015,5 0 0,0
09.07.2020 02:00:00 16,1 15,2 11 6 23 12 SW 1015,7 0 0,0
09.07.2020 01:00:00 16,2 15,2 10 5 20 11 WSW 1015,8 0 0,0
09.07.2020 00:00:00 16,2 15,3 9 5 22 12 WSW 1016,3 0 0,0
08.07.2020 23:00:00 16,3 15,4 12 6 23 12 W 1016,5 0 0,1
08.07.2020 22:00:00 16,4 15,5 11 6 24 13 W 1016,3 0 0,4
08.07.2020 21:00:00 16,4 15,4 11 6 26 14 W 1016,4 0 0,3
08.07.2020 20:00:00 16,5 15,5 11 6 24 13 WSW 1016,3 0 0,3
08.07.2020 19:00:00 16,5 15,2 13 7 27 15 WSW 1016,3 0 0,0
08.07.2020 18:00:00 16,9 15,5 13 7 28 15 W 1016,4 0 0,0
08.07.2020 17:00:00 16,7 15,5 12 7 27 15 WSW 1016,6 0 0,4
08.07.2020 16:00:00 16,7 15,3 10 5 25 14 WSW 1016,4 0 0,1
08.07.2020 15:00:00 16,4 15,3 11 6 25 14 SW 1016,3 0 0,0
08.07.2020 14:00:00 15,8 14,8 11 6 23 12 WSW 1016,3 0 0,1
08.07.2020 13:00:00 15,0 14,0 14 7 24 13 SW 1016,2 0 0,8
08.07.2020 12:00:00 14,3 13,2 16 8 27 14 SW 1016,2 0 0,5
08.07.2020 11:00:00 13,8 12,8 12 7 24 13 SW 1016,1 0 1,2
08.07.2020 10:00:00 13,4 12,4 10 5 22 12 SW 1016,1 0 0,7
08.07.2020 09:00:00 13,1 12,2 11 6 21 11 SSW 1015,9 0 0,8
08.07.2020 08:00:00 12,8 11,8 11 6 19 10 SSW 1016,0 0 1,2
08.07.2020 07:00:00 12,4 11,3 6 4 12 7 SSW 1016,4 0 1,4
08.07.2020 06:00:00 12,7 10,8 5 3 13 7 SW 1016,5 0 0,4
08.07.2020 05:00:00 12,9 9,7 7 4 19 10 WSW 1016,6 0 0,1
08.07.2020 04:00:00 13,4 8,9 10 6 23 12 W 1017,1 0 0,0
08.07.2020 03:00:00 13,3 9,1 10 6 23 13 W 1017,7 0 0,2
08.07.2020 02:00:00 14,6 9,1 11 6 18 10 W 1018,1 0 0,1
08.07.2020 01:00:00 15,5 8,1 9 5 23 12 W 1017,9 0 0,0
08.07.2020 00:00:00 16,5 7,9 13 7 27 15 W 1018,2 0 0,0
07.07.2020 23:00:00 17,4 7,5 13 7 30 16 W 1018,1 0 0,0
07.07.2020 22:00:00 18,2 8,0 14 7 27 15 W 1018,2 0 0,0
07.07.2020 21:00:00 19,2 8,9 10 5 22 12 W 1018,0 0 0,0
07.07.2020 20:00:00 19,6 8,7 11 6 22 12 W 1018,3 0 0,0
07.07.2020 19:00:00 19,9 8,9 11 6 23 12 W 1018,6 4 0,0
07.07.2020 18:00:00 19,9 8,6 11 6 24 13 W 1019,2 25 0,0
07.07.2020 17:00:00 20,7 8,7 12 7 27 15 WSW 1019,4 30 0,0
07.07.2020 16:00:00 19,5 8,7 13 7 29 16 WNW 1020,2 30 0,0
07.07.2020 15:00:00 19,6 9,1 12 6 29 16 W 1020,4 15 0,0
07.07.2020 14:00:00 18,7 8,9 14 8 30 16 NW 1020,7 7 0,0
07.07.2020 13:00:00 19,5 8,5 16 9 37 20 W 1020,8 29 0,0
07.07.2020 12:00:00 19,3 9,5 10 5 24 13 W 1021,3 44 0,0
07.07.2020 11:00:00 18,7 10,9 11 6 22 12 W 1021,5 59 0,0
07.07.2020 10:00:00 16,9 12,1 9 5 19 11 SW 1021,6 60 0,0
07.07.2020 09:00:00 15,1 11,2 8 4 21 11 WSW 1021,6 60 0,0
07.07.2020 08:00:00 13,2 10,6 11 6 16 9 SW 1021,8 19 0,0
07.07.2020 07:00:00 12,8 10,1 8 4 16 9 SW 1021,9 0 0,0
07.07.2020 06:00:00 12,7 9,5 4 2 10 6 SSW 1021,8 0 0,0
07.07.2020 05:00:00 12,7 9,0 5 3 10 6 SW 1022,3 0 0,0
07.07.2020 04:00:00 12,5 8,7 5 3 10 5 SW 1022,4 0 0,0
07.07.2020 03:00:00 12,5 9,0 5 3 6 3 SSW 1022,7 0 0,0
07.07.2020 02:00:00 13,1 8,5 4 2 9 5 SW 1022,9 0 0,0
07.07.2020 01:00:00 13,5 8,6 6 4 9 5 W 1023,0 0 0,0
07.07.2020 00:00:00 14,2 8,3 5 3 14 7 NW 1023,1 0 0,0
06.07.2020 23:00:00 15,0 7,7 6 3 15 8 NW 1022,8 0 0,0
06.07.2020 22:00:00 16,0 7,4 7 4 24 13 WNW 1022,3 0 0,0
06.07.2020 21:00:00 16,5 6,9 10 5 27 15 NW 1021,9 21 0,0
06.07.2020 20:00:00 17,3 7,1 18 10 36 20 NNW 1021,4 0 0,0
06.07.2020 19:00:00 19,1 7,0 14 8 38 20 WNW 1020,8 37 0,0
06.07.2020 18:00:00 18,0 6,6 21 11 46 25 WNW 1020,6 12 0,0
06.07.2020 17:00:00 19,2 6,7 20 11 48 26 WNW 1020,1 40 0,0
06.07.2020 16:00:00 18,9 7,7 22 12 47 26 WNW 1019,8 33 0,0
06.07.2020 15:00:00 18,7 8,0 25 13 47 26 WNW 1019,2 30 0,0
06.07.2020 14:00:00 18,3 7,9 14 8 44 24 NW 1018,6 28 0,0
06.07.2020 13:00:00 18,7 8,9 23 12 49 26 W 1018,1 50 0,0
06.07.2020 12:00:00 17,7 8,5 23 12 44 24 W 1017,5 50 0,0
06.07.2020 11:00:00 16,4 8,9 18 10 40 22 W 1017,2 30 0,0
06.07.2020 10:00:00 15,4 9,5 18 10 39 21 W 1017,0 36 0,0
06.07.2020 09:00:00 14,3 9,4 18 10 38 21 W 1016,5 35 0,0
06.07.2020 08:00:00 13,1 9,3 18 10 36 19 W 1016,0 60 0,0
06.07.2020 07:00:00 11,5 9,2 15 8 28 15 W 1015,7 30 0,0
06.07.2020 06:00:00 11,1 9,1 16 8 31 17 W 1015,6 0 0,0
06.07.2020 05:00:00 11,3 9,3 13 7 29 16 WSW 1015,0 0 0,0
06.07.2020 04:00:00 11,9 9,5 15 8 35 19 WSW 1014,9 0 0,0
06.07.2020 03:00:00 12,3 9,5 16 8 36 19 WSW 1015,0 0 0,0
06.07.2020 02:00:00 12,8 9,3 18 10 39 21 WSW 1015,0 0 0,0
06.07.2020 01:00:00 13,3 8,8 19 11 45 24 WSW 1014,7 0 0,0
06.07.2020 00:00:00 14,1 8,2 20 11 40 21 WSW 1014,6 0 0,0
05.07.2020 23:00:00 15,0 8,5 20 11 48 26 W 1014,2 0 0,0
05.07.2020 22:00:00 16,0 8,4 27 15 51 28 W 1013,7 0 0,0
05.07.2020 21:00:00 17,6 10,2 24 13 62 33 W 1013,2 27 0,0
05.07.2020 20:00:00 19,5 11,6 29 16 66 35 WSW 1012,9 45 0,0
05.07.2020 19:00:00 21,1 13,2 34 19 69 38 W 1012,8 47 0,0
05.07.2020 18:00:00 22,2 14,1 24 13 61 33 W 1012,8 43 0,0
05.07.2020 17:00:00 22,5 15,4 24 13 55 30 W 1012,9 33 0,0
05.07.2020 16:00:00 20,7 16,1 25 13 57 31 WSW 1013,2 2 0,0
05.07.2020 15:00:00 20,2 16,5 23 12 47 26 WSW 1013,0 0 0,0
05.07.2020 14:00:00 18,9 16,4 22 12 50 27 WSW 1013,3 0 0,2
05.07.2020 13:00:00 18,2 16,7 22 12 46 25 WSW 1013,4 0 0,2
05.07.2020 12:00:00 18,4 16,8 18 10 53 28 WSW 1013,3 0 0,1
05.07.2020 11:00:00 18,7 16,1 23 12 46 25 WSW 1013,2 0 0,0
05.07.2020 10:00:00 19,2 15,4 23 12 49 27 WSW 1013,0 0 0,0
05.07.2020 09:00:00 18,4 15,7 22 12 50 27 SW 1013,0 0 0,0
05.07.2020 08:00:00 17,8 15,7 22 12 50 27 WSW 1013,1 0 0,0
05.07.2020 07:00:00 17,7 15,2 21 12 45 24 WSW 1012,8 0 0,0
05.07.2020 06:00:00 17,4 15,1 17 9 44 24 WSW 1013,0 0 0,0
05.07.2020 05:00:00 17,1 15,2 23 13 56 30 WSW 1013,1 0 0,0
05.07.2020 04:00:00 17,2 15,3 22 12 56 30 WSW 1013,4 0 0,0
05.07.2020 03:00:00 17,4 16,0 18 10 43 23 WSW 1013,6 0 0,1
05.07.2020 02:00:00 17,9 16,7 22 12 40 22 WSW 1014,0 0 0,5
05.07.2020 01:00:00 18,9 16,2 19 11 39 21 SW 1013,6 0 0,0
05.07.2020 00:00:00 18,8 16,1 20 11 40 22 SSW 1013,8 0 0,0
04.07.2020 23:00:00 18,7 16,2 19 10 42 23 SW 1014,0 0 0,0
04.07.2020 22:00:00 18,7 16,2 20 11 43 23 SW 1014,0 0 0,0
04.07.2020 21:00:00 19,4 15,9 23 12 46 25 SW 1014,3 0 0,0
04.07.2020 20:00:00 19,7 15,6 18 10 43 23 SW 1014,2 0 0,0
04.07.2020 19:00:00 19,8 15,3 18 10 41 22 SW 1014,7 0 0,0
04.07.2020 18:00:00 19,7 15,0 24 13 49 27 SW 1014,9 0 0,0
04.07.2020 17:00:00 19,7 14,4 21 11 49 26 SW 1015,2 0 0,0
04.07.2020 16:00:00 19,4 14,3 21 12 49 26 SW 1015,3 0 0,0
04.07.2020 15:00:00 19,0 14,0 24 13 44 24 SW 1015,5 0 0,0

tt = Température de l'air
td = dewpoint
ff = Vitesse du vent
fx = gusts
dd = Direction du vent
ppp = reduced air pressure
sd = Ensoleillement
rr = Quantités de précipitations

stations d'obs. à proximité